Gorda, California
Current Conditions -  °F | °C
As of 8:54 AM on Sunday 23 Nov 2014 (Local Time) from KMRY Reporting Station
Clear Clear  
Wind Chill: 55°   Ceiling: Unl
Heat Index: 55°   Visibility: 10mi
Dew Point: 53°   Wind: 5mph
Humidity: 93%   Direction: 100°E
Pressure: 30.31"   Gusts: NA
Location:  36.2518°N, 121.704°W
Report Text: KMRY 231654Z 10004KT 10SM CLR 13/12 A3031 RMK AO2 SLP275 T01280117
Loading
Personal Weather Stations






























Interactive Weather Map New forecast layout! Learn more

10-Day Weather Forecast

Advertisements
Track Severe Weather on mobile